createdAt,value
2019-02-28T00:00:33.096Z,79.51
2019-02-28T00:01:33.115Z,80.04
2019-02-28T00:02:33.045Z,80.04
2019-02-28T00:03:33.039Z,79.38
2019-02-28T00:04:33.123Z,79.30
2019-02-28T00:05:33.016Z,79.10
2019-02-28T00:06:33.062Z,78.75
2019-02-28T00:07:33.002Z,78.68
2019-02-28T00:08:33.024Z,78.99
2019-02-28T00:09:32.995Z,79.20
2019-02-28T00:10:33.030Z,79.72
2019-02-28T00:11:32.990Z,79.83
2019-02-28T00:12:32.982Z,79.93
2019-02-28T00:13:32.946Z,80.14
2019-02-28T00:14:32.950Z,79.83
2019-02-28T00:15:32.954Z,79.83
2019-02-28T00:16:35.642Z,79.51
2019-02-28T00:17:32.906Z,80.14
2019-02-28T00:18:32.943Z,79.20
2019-02-28T00:19:32.910Z,79.65
2019-02-28T00:20:32.892Z,80.18
2019-02-28T00:21:32.869Z,79.97
2019-02-28T00:22:32.866Z,80.18
2019-02-28T00:23:32.837Z,79.97
2019-02-28T00:24:32.830Z,80.49
2019-02-28T00:25:37.701Z,81.01
2019-02-28T00:26:33.808Z,80.73
2019-02-28T00:27:32.793Z,81.04
2019-02-28T00:28:32.776Z,81.04
2019-02-28T00:29:33.689Z,81.11
2019-02-28T00:30:32.772Z,81.25
2019-02-28T00:31:32.793Z,81.25
2019-02-28T00:32:32.756Z,81.46
2019-02-28T00:33:32.714Z,81.63
2019-02-28T00:34:32.722Z,81.01
2019-02-28T00:35:32.777Z,81.11
2019-02-28T00:36:32.712Z,81.32
2019-02-28T00:37:32.701Z,81.52
2019-02-28T00:38:32.677Z,81.42
2019-02-28T00:39:34.914Z,81.32
2019-02-28T00:40:32.901Z,80.49
2019-02-28T00:41:32.700Z,80.69
2019-02-28T00:42:32.629Z,80.69
2019-02-28T00:43:32.634Z,80.69
2019-02-28T00:44:32.722Z,80.14
2019-02-28T00:45:36.343Z,80.38
2019-02-28T00:46:32.715Z,80.90
2019-02-28T00:47:32.591Z,80.38
2019-02-28T00:48:32.648Z,80.69
2019-02-28T00:49:32.552Z,81.11
2019-02-28T00:50:32.566Z,80.73
2019-02-28T00:51:32.543Z,81.25
2019-02-28T00:52:35.517Z,81.25
2019-02-28T00:53:32.544Z,80.83
2019-02-28T00:54:32.513Z,81.04
2019-02-28T00:55:32.606Z,81.87
2019-02-28T00:56:32.497Z,81.67
2019-02-28T00:57:32.470Z,81.73
2019-02-28T00:58:32.488Z,81.42
2019-02-28T00:59:32.493Z,81.87
2019-02-28T01:00:32.506Z,81.46
2019-02-28T01:01:32.470Z,81.35
2019-02-28T01:02:32.433Z,80.73
2019-02-28T01:03:32.451Z,81.67
2019-02-28T01:04:32.383Z,81.15
2019-02-28T01:05:32.484Z,80.42
2019-02-28T01:06:32.381Z,81.25
2019-02-28T01:07:32.361Z,81.87
2019-02-28T01:08:32.418Z,81.60
2019-02-28T01:09:32.355Z,82.95
2019-02-28T01:10:32.321Z,82.60
2019-02-28T01:11:32.360Z,82.70
2019-02-28T01:12:32.306Z,82.39
2019-02-28T01:13:32.306Z,82.70
2019-02-28T01:14:35.579Z,82.70
2019-02-28T01:15:32.343Z,81.77
2019-02-28T01:16:32.279Z,81.67
2019-02-28T01:17:32.304Z,81.56
2019-02-28T01:18:34.724Z,82.08
2019-02-28T01:19:32.231Z,81.87
2019-02-28T01:20:32.315Z,81.77
2019-02-28T01:21:32.216Z,82.50
2019-02-28T01:22:32.390Z,81.67
2019-02-28T01:23:32.186Z,81.91
2019-02-28T01:24:34.785Z,82.70
2019-02-28T01:25:32.321Z,82.74
2019-02-28T01:26:32.156Z,81.81
2019-02-28T01:27:32.147Z,81.87
2019-02-28T01:28:32.188Z,82.22
2019-02-28T01:29:32.941Z,83.33
2019-02-28T01:30:32.150Z,82.95
2019-02-28T01:31:32.109Z,82.84
2019-02-28T01:32:32.187Z,83.05
2019-02-28T01:33:32.079Z,83.40
2019-02-28T01:34:32.860Z,83.30
2019-02-28T01:35:32.141Z,83.99
2019-02-28T01:36:32.067Z,83.47
2019-02-28T01:37:32.034Z,83.37
2019-02-28T01:38:32.031Z,83.99
2019-02-28T01:39:32.095Z,83.26
2019-02-28T01:40:32.021Z,83.99
2019-02-28T01:41:32.027Z,83.40
2019-02-28T01:42:32.001Z,83.51
2019-02-28T01:43:31.989Z,83.72
2019-02-28T01:44:35.545Z,83.61
2019-02-28T01:45:31.974Z,84.34
2019-02-28T01:46:31.955Z,84.34
2019-02-28T01:47:31.950Z,85.06
2019-02-28T01:48:31.960Z,84.86
2019-02-28T01:49:31.914Z,84.96
2019-02-28T01:50:31.939Z,86.21
2019-02-28T01:51:35.746Z,85.59
2019-02-28T01:52:31.932Z,85.38
2019-02-28T01:53:31.874Z,85.59
2019-02-28T01:54:31.869Z,85.49
2019-02-28T01:55:31.869Z,85.52
2019-02-28T01:56:34.301Z,85.11
2019-02-28T01:57:32.877Z,85.94
2019-02-28T01:58:31.863Z,85.83
2019-02-28T01:59:31.793Z,85.73
2019-02-28T02:00:31.791Z,86.35
2019-02-28T02:01:31.870Z,86.11
2019-02-28T02:02:31.779Z,85.80
2019-02-28T02:03:31.806Z,85.49
2019-02-28T02:04:31.745Z,85.17
2019-02-28T02:05:31.773Z,85.59
2019-02-28T02:06:31.781Z,84.65
2019-02-28T02:07:33.293Z,84.23
2019-02-28T02:08:31.737Z,84.23
2019-02-28T02:09:31.702Z,84.44
2019-02-28T02:10:31.776Z,84.23
2019-02-28T02:11:31.678Z,84.34
2019-02-28T02:12:32.507Z,84.13
2019-02-28T02:13:36.637Z,84.23
2019-02-28T02:14:32.648Z,84.34
2019-02-28T02:15:31.676Z,84.13
2019-02-28T02:16:31.632Z,84.23
2019-02-28T02:17:32.316Z,84.03
2019-02-28T02:18:31.620Z,83.82
2019-02-28T02:19:31.587Z,84.23
2019-02-28T02:20:31.583Z,84.03
2019-02-28T02:21:35.048Z,84.03
2019-02-28T02:22:31.567Z,84.03
2019-02-28T02:23:31.550Z,84.03
2019-02-28T02:24:31.567Z,84.13
2019-02-28T02:25:31.513Z,83.92
2019-02-28T02:26:31.587Z,84.23
2019-02-28T02:27:31.533Z,84.27
2019-02-28T02:28:31.520Z,84.17
2019-02-28T02:29:32.503Z,84.59
2019-02-28T02:30:31.496Z,84.48
2019-02-28T02:31:31.469Z,84.80
2019-02-28T02:32:37.092Z,85.21
2019-02-28T02:33:32.453Z,85.63
2019-02-28T02:34:31.417Z,84.80
2019-02-28T02:35:31.465Z,85.04
2019-02-28T02:36:31.424Z,85.25
2019-02-28T02:37:31.527Z,86.08
2019-02-28T02:38:31.431Z,85.77
2019-02-28T02:39:31.381Z,85.88
2019-02-28T02:40:31.412Z,85.77
2019-02-28T02:41:33.373Z,85.52
2019-02-28T02:42:31.377Z,85.67
2019-02-28T02:43:31.342Z,85.77
2019-02-28T02:44:32.068Z,85.56
2019-02-28T02:45:31.307Z,85.77
2019-02-28T02:46:31.345Z,85.56
2019-02-28T02:47:32.485Z,85.67
2019-02-28T02:48:31.285Z,86.29
2019-02-28T02:49:31.309Z,85.77
2019-02-28T02:50:35.867Z,85.77
2019-02-28T02:51:31.268Z,85.98
2019-02-28T02:52:31.274Z,85.98
2019-02-28T02:53:31.260Z,85.98
2019-02-28T02:54:31.237Z,86.12
2019-02-28T02:55:31.237Z,85.88
2019-02-28T02:56:31.252Z,86.33
2019-02-28T02:57:31.182Z,86.60
2019-02-28T02:58:31.185Z,86.65
2019-02-28T02:59:37.567Z,86.33
2019-02-28T03:00:32.233Z,86.65
2019-02-28T03:01:31.186Z,86.43
2019-02-28T03:02:33.149Z,87.16
2019-02-28T03:03:31.131Z,87.27
2019-02-28T03:04:31.107Z,87.99
2019-02-28T03:05:34.924Z,87.48
2019-02-28T03:06:31.130Z,87.68
2019-02-28T03:07:31.149Z,87.79
2019-02-28T03:08:35.708Z,87.99
2019-02-28T03:09:32.145Z,87.99
2019-02-28T03:10:31.089Z,87.27
2019-02-28T03:11:31.033Z,87.20
2019-02-28T03:12:32.664Z,86.79
2019-02-28T03:13:31.061Z,87.10
2019-02-28T03:14:31.020Z,88.04
2019-02-28T03:15:31.009Z,88.24
2019-02-28T03:16:33.037Z,88.24
2019-02-28T03:17:31.015Z,87.83
2019-02-28T03:18:30.958Z,87.79
2019-02-28T03:19:33.513Z,87.99
2019-02-28T03:20:31.061Z,87.89
2019-02-28T03:21:30.953Z,87.99
2019-02-28T03:22:30.935Z,87.27
2019-02-28T03:23:38.200Z,87.06
2019-02-28T03:24:31.928Z,87.16
2019-02-28T03:25:30.919Z,87.10
2019-02-28T03:26:30.909Z,86.58
2019-02-28T03:27:30.873Z,87.93
2019-02-28T03:28:32.008Z,88.24
2019-02-28T03:29:31.232Z,87.83
2019-02-28T03:30:32.927Z,88.14
2019-02-28T03:31:30.848Z,88.08
2019-02-28T03:32:39.015Z,87.97
2019-02-28T03:33:31.814Z,87.87
2019-02-28T03:34:30.833Z,88.49
2019-02-28T03:35:39.985Z,89.54
2019-02-28T03:36:31.772Z,89.43
2019-02-28T03:37:33.079Z,89.26
2019-02-28T03:38:30.850Z,89.43
2019-02-28T03:39:30.745Z,89.85
2019-02-28T03:40:30.853Z,89.54
2019-02-28T03:41:30.746Z,89.54
2019-02-28T03:42:30.713Z,88.70
2019-02-28T03:43:30.731Z,88.75
2019-02-28T03:44:30.746Z,88.08
2019-02-28T03:45:35.190Z,87.81
2019-02-28T03:46:30.680Z,88.43
2019-02-28T03:47:30.734Z,88.32
2019-02-28T03:48:34.702Z,89.58
2019-02-28T03:49:31.707Z,88.53
2019-02-28T03:50:30.866Z,89.58
2019-02-28T03:51:30.636Z,89.16
2019-02-28T03:52:30.634Z,88.85
2019-02-28T03:53:30.680Z,89.37
2019-02-28T03:54:30.653Z,89.68
2019-02-28T03:55:30.583Z,89.68
2019-02-28T03:56:30.586Z,89.37
2019-02-28T03:57:30.557Z,89.78
2019-02-28T03:58:30.615Z,89.37
2019-02-28T03:59:30.587Z,89.58
2019-02-28T04:00:33.904Z,89.16
2019-02-28T04:01:30.535Z,89.47
2019-02-28T04:02:30.516Z,89.31
2019-02-28T04:03:33.698Z,89.16
2019-02-28T04:04:30.502Z,90.25
2019-02-28T04:05:30.496Z,90.20
2019-02-28T04:06:30.520Z,90.83
2019-02-28T04:07:30.490Z,90.52
2019-02-28T04:08:30.801Z,90.10
2019-02-28T04:09:30.454Z,90.14
2019-02-28T04:10:30.431Z,90.31
2019-02-28T04:11:31.970Z,89.89
2019-02-28T04:12:30.412Z,89.89
2019-02-28T04:13:30.439Z,90.00
2019-02-28T04:14:33.279Z,90.00
2019-02-28T04:15:30.371Z,90.25
2019-02-28T04:16:30.374Z,90.03
2019-02-28T04:17:31.622Z,90.03
2019-02-28T04:18:30.364Z,90.56
2019-02-28T04:19:30.372Z,90.14
2019-02-28T04:20:35.916Z,90.35
2019-02-28T04:21:31.326Z,90.14
2019-02-28T04:22:30.309Z,90.03
2019-02-28T04:23:35.426Z,90.14
2019-02-28T04:24:31.294Z,90.08
2019-02-28T04:25:30.285Z,90.35
2019-02-28T04:26:31.098Z,90.97
2019-02-28T04:27:30.259Z,90.77
2019-02-28T04:28:30.275Z,91.12
2019-02-28T04:29:31.384Z,90.56
2019-02-28T04:30:30.226Z,90.97
2019-02-28T04:31:30.215Z,90.81
2019-02-28T04:32:30.488Z,91.22
2019-02-28T04:33:30.187Z,91.22
2019-02-28T04:34:30.243Z,91.75
2019-02-28T04:35:30.169Z,91.85
2019-02-28T04:36:35.481Z,91.96
2019-02-28T04:37:31.192Z,92.37
2019-02-28T04:38:30.132Z,92.47
2019-02-28T04:39:30.222Z,92.37
2019-02-28T04:40:30.130Z,92.06
2019-02-28T04:41:32.444Z,92.33
2019-02-28T04:42:30.128Z,92.47
2019-02-28T04:43:30.077Z,92.06
2019-02-28T04:44:30.123Z,92.47
2019-02-28T04:45:30.071Z,92.79
2019-02-28T04:46:31.807Z,92.16
2019-02-28T04:47:30.076Z,92.22
2019-02-28T04:48:30.022Z,91.91
2019-02-28T04:49:30.049Z,92.65
2019-02-28T04:50:32.074Z,91.60
2019-02-28T04:51:30.022Z,91.91
2019-02-28T04:52:30.014Z,91.71
2019-02-28T04:53:29.972Z,92.12
2019-02-28T04:54:30.012Z,92.02
2019-02-28T04:55:30.726Z,92.06
2019-02-28T04:56:29.936Z,92.33
2019-02-28T04:57:30.006Z,92.22
2019-02-28T04:58:29.927Z,92.44
2019-02-28T04:59:31.628Z,92.22
2019-02-28T05:00:29.939Z,91.91
2019-02-28T05:01:29.899Z,91.71
2019-02-28T05:02:29.888Z,91.91
2019-02-28T05:03:29.883Z,91.60
2019-02-28T05:04:29.856Z,91.91
2019-02-28T05:05:29.871Z,92.40
2019-02-28T05:06:29.880Z,91.97
2019-02-28T05:07:30.412Z,91.81
2019-02-28T05:08:29.852Z,91.91
2019-02-28T05:09:29.811Z,92.08
2019-02-28T05:10:29.841Z,91.87
2019-02-28T05:11:30.566Z,91.81
2019-02-28T05:12:29.884Z,91.56
2019-02-28T05:13:29.808Z,91.77
2019-02-28T05:14:29.768Z,92.02
2019-02-28T05:15:29.737Z,91.71
2019-02-28T05:16:29.732Z,92.44
2019-02-28T05:17:29.789Z,92.12
2019-02-28T05:18:29.728Z,92.29
2019-02-28T05:19:32.320Z,92.65
2019-02-28T05:20:32.803Z,92.02
2019-02-28T05:21:29.684Z,92.65
2019-02-28T05:22:29.688Z,93.06
2019-02-28T05:23:29.711Z,92.44
2019-02-28T05:24:29.679Z,93.02
2019-02-28T05:25:29.632Z,92.12
2019-02-28T05:26:29.623Z,92.96
2019-02-28T05:27:34.863Z,92.81
2019-02-28T05:28:30.609Z,92.40
2019-02-28T05:29:29.601Z,91.81
2019-02-28T05:30:29.677Z,92.33
2019-02-28T05:31:29.570Z,92.85
2019-02-28T05:32:32.127Z,92.60
2019-02-28T05:33:30.551Z,91.97
2019-02-28T05:34:29.535Z,92.08
2019-02-28T05:35:29.569Z,91.97
2019-02-28T05:36:29.530Z,92.40
2019-02-28T05:37:29.570Z,92.12
2019-02-28T05:38:29.543Z,92.44
2019-02-28T05:39:30.979Z,92.44
2019-02-28T05:40:29.500Z,92.33
2019-02-28T05:41:29.497Z,92.85
2019-02-28T05:42:29.493Z,92.22
2019-02-28T05:43:32.116Z,92.44
2019-02-28T05:44:29.454Z,93.06
2019-02-28T05:45:29.426Z,92.44
2019-02-28T05:46:29.412Z,92.81
2019-02-28T05:47:32.256Z,92.75
2019-02-28T05:48:29.430Z,92.50
2019-02-28T05:49:29.379Z,92.54
2019-02-28T05:50:29.368Z,92.60
2019-02-28T05:51:29.365Z,92.91
2019-02-28T05:52:30.524Z,92.91
2019-02-28T05:53:29.371Z,92.71
2019-02-28T05:54:29.362Z,91.97
2019-02-28T05:55:29.363Z,92.29
2019-02-28T05:56:32.828Z,92.02
2019-02-28T05:57:29.292Z,92.85
2019-02-28T05:58:29.289Z,92.85
2019-02-28T05:59:29.289Z,92.75
2019-02-28T06:00:29.294Z,93.16
2019-02-28T06:01:29.250Z,92.22
2019-02-28T06:02:29.280Z,92.96
2019-02-28T06:03:30.375Z,92.54
2019-02-28T06:04:29.225Z,93.27
2019-02-28T06:05:29.298Z,93.59
2019-02-28T06:06:29.233Z,93.37
2019-02-28T06:07:29.584Z,93.16
2019-02-28T06:08:29.205Z,93.16
2019-02-28T06:09:29.217Z,93.06
2019-02-28T06:10:29.156Z,93.48
2019-02-28T06:11:34.542Z,93.06
2019-02-28T06:12:30.191Z,93.90
2019-02-28T06:13:29.132Z,94.00
2019-02-28T06:14:29.130Z,93.79
2019-02-28T06:15:29.183Z,94.21
2019-02-28T06:16:29.351Z,94.00
2019-02-28T06:17:29.096Z,94.42
2019-02-28T06:18:32.619Z,94.00
2019-02-28T06:19:29.079Z,93.90
2019-02-28T06:20:29.149Z,94.52
2019-02-28T06:21:29.053Z,94.63
2019-02-28T06:22:30.551Z,95.36
2019-02-28T06:23:30.157Z,95.10
2019-02-28T06:24:29.034Z,94.42
2019-02-28T06:25:29.005Z,93.90
2019-02-28T06:26:31.815Z,94.10
2019-02-28T06:27:28.979Z,93.37
2019-02-28T06:28:31.027Z,93.63
2019-02-28T06:29:28.987Z,93.00
2019-02-28T06:30:28.975Z,93.52
2019-02-28T06:31:28.978Z,93.63
2019-02-28T06:32:28.932Z,94.63
2019-02-28T06:33:30.523Z,95.36
2019-02-28T06:34:28.947Z,95.21
2019-02-28T06:35:28.896Z,95.21
2019-02-28T06:36:29.195Z,95.04
2019-02-28T06:37:29.079Z,94.58
2019-02-28T06:38:28.884Z,93.96
2019-02-28T06:39:28.855Z,94.06
2019-02-28T06:40:32.803Z,93.96
2019-02-28T06:41:28.856Z,93.96
2019-02-28T06:42:28.839Z,93.75
2019-02-28T06:43:28.836Z,93.33
2019-02-28T06:44:28.808Z,93.44
2019-02-28T06:45:28.797Z,92.71
2019-02-28T06:46:28.794Z,92.40
2019-02-28T06:47:28.782Z,93.16
2019-02-28T06:48:28.837Z,92.33
2019-02-28T06:49:28.751Z,92.85
2019-02-28T06:50:28.749Z,92.96
2019-02-28T06:51:28.731Z,93.27
2019-02-28T06:52:28.717Z,93.69
2019-02-28T06:53:30.740Z,94.31
2019-02-28T06:54:28.719Z,94.52
2019-02-28T06:55:28.682Z,94.52
2019-02-28T06:56:28.690Z,94.17
2019-02-28T06:57:28.743Z,94.23
2019-02-28T06:58:30.459Z,93.75
2019-02-28T06:59:28.645Z,94.12
2019-02-28T07:00:28.640Z,94.23
2019-02-28T07:01:29.614Z,94.02
2019-02-28T07:02:31.417Z,94.12
2019-02-28T07:03:28.640Z,94.23
2019-02-28T07:04:28.599Z,94.33
2019-02-28T07:05:28.595Z,93.91
2019-02-28T07:06:28.592Z,94.12
2019-02-28T07:07:28.566Z,93.81
2019-02-28T07:08:29.069Z,93.77
2019-02-28T07:09:30.435Z,94.02
2019-02-28T07:10:28.599Z,95.02
2019-02-28T07:11:28.556Z,95.08
2019-02-28T07:12:29.789Z,94.45
2019-02-28T07:13:28.496Z,94.04
2019-02-28T07:14:28.492Z,94.04
2019-02-28T07:15:28.476Z,93.62
2019-02-28T07:16:30.668Z,93.83
2019-02-28T07:17:29.481Z,93.83
2019-02-28T07:18:28.445Z,93.37
2019-02-28T07:19:28.512Z,93.27
2019-02-28T07:20:28.435Z,94.10
2019-02-28T07:21:28.425Z,94.10
2019-02-28T07:22:28.447Z,93.48
2019-02-28T07:23:30.033Z,93.23
2019-02-28T07:24:28.401Z,92.60
2019-02-28T07:25:28.390Z,92.70
2019-02-28T07:26:28.364Z,92.91
2019-02-28T07:27:29.789Z,91.66
2019-02-28T07:28:28.362Z,91.87
2019-02-28T07:29:28.370Z,92.14
2019-02-28T07:30:28.324Z,92.18
2019-02-28T07:31:28.313Z,92.45
2019-02-28T07:32:31.238Z,92.45
2019-02-28T07:33:29.366Z,91.93
2019-02-28T07:34:28.283Z,91.52
2019-02-28T07:35:32.735Z,92.14
2019-02-28T07:36:29.256Z,92.66
2019-02-28T07:37:28.274Z,92.66
2019-02-28T07:38:28.966Z,92.24
2019-02-28T07:39:28.303Z,92.20
2019-02-28T07:40:28.275Z,92.03
2019-02-28T07:41:28.230Z,92.51
2019-02-28T07:42:28.211Z,93.24
2019-02-28T07:43:28.189Z,93.87
2019-02-28T07:44:28.190Z,93.93
2019-02-28T07:45:29.617Z,93.72
2019-02-28T07:46:28.195Z,94.03
2019-02-28T07:47:28.150Z,93.20
2019-02-28T07:48:30.047Z,92.57
2019-02-28T07:49:28.183Z,92.01
2019-02-28T07:50:28.112Z,91.39
2019-02-28T07:51:28.210Z,91.80
2019-02-28T07:52:32.374Z,90.10
2019-02-28T07:53:29.082Z,89.69
2019-02-28T07:54:28.084Z,89.79
2019-02-28T07:55:30.390Z,89.96
2019-02-28T07:56:28.156Z,89.44
2019-02-28T07:57:28.066Z,89.03
2019-02-28T07:58:29.904Z,89.34
2019-02-28T07:59:28.056Z,89.75
2019-02-28T08:00:28.067Z,89.86
2019-02-28T08:01:28.586Z,90.37
2019-02-28T08:02:27.986Z,89.54
2019-02-28T08:03:28.028Z,89.81
2019-02-28T08:04:27.972Z,89.92
2019-02-28T08:05:31.042Z,89.40
2019-02-28T08:06:28.053Z,89.71
2019-02-28T08:07:27.960Z,90.02
2019-02-28T08:08:27.955Z,89.67
2019-02-28T08:09:28.044Z,89.36
2019-02-28T08:10:27.917Z,89.46
2019-02-28T08:11:27.909Z,89.56
2019-02-28T08:12:30.857Z,89.62
2019-02-28T08:13:27.909Z,91.02
2019-02-28T08:14:27.858Z,91.28
2019-02-28T08:15:27.872Z,91.49
2019-02-28T08:16:30.719Z,91.28
2019-02-28T08:17:28.849Z,92.22
2019-02-28T08:18:27.821Z,92.28
2019-02-28T08:19:28.175Z,92.28
2019-02-28T08:20:30.642Z,91.86
2019-02-28T08:21:28.806Z,92.65
2019-02-28T08:22:27.990Z,92.65
2019-02-28T08:23:29.701Z,91.93
2019-02-28T08:24:27.756Z,92.24
2019-02-28T08:25:27.801Z,91.82
2019-02-28T08:26:27.742Z,92.09
2019-02-28T08:27:27.784Z,91.57
2019-02-28T08:28:29.556Z,91.78
2019-02-28T08:29:27.778Z,91.47
2019-02-28T08:30:27.681Z,91.26
2019-02-28T08:31:28.392Z,90.23
2019-02-28T08:32:27.755Z,90.91
2019-02-28T08:33:27.674Z,91.32
2019-02-28T08:34:27.653Z,90.66
2019-02-28T08:35:34.095Z,89.11
2019-02-28T08:36:28.671Z,89.62
2019-02-28T08:37:27.635Z,89.07
2019-02-28T08:38:30.044Z,87.62
2019-02-28T08:39:28.637Z,88.04
2019-02-28T08:40:27.590Z,88.45
2019-02-28T08:41:27.651Z,88.61
2019-02-28T08:42:27.586Z,88.10
2019-02-28T08:43:27.557Z,87.79
2019-02-28T08:44:27.559Z,87.74
2019-02-28T08:45:32.655Z,86.92
2019-02-28T08:46:28.562Z,87.34
2019-02-28T08:47:27.609Z,85.89
2019-02-28T08:48:31.542Z,86.36
2019-02-28T08:49:27.511Z,86.94
2019-02-28T08:50:27.479Z,85.02
2019-02-28T08:51:27.770Z,86.26
2019-02-28T08:52:27.521Z,86.63
2019-02-28T08:53:27.437Z,86.84
2019-02-28T08:54:27.620Z,85.71
2019-02-28T08:55:29.113Z,86.18
2019-02-28T08:56:27.442Z,84.84
2019-02-28T08:57:27.392Z,84.19
2019-02-28T08:58:27.487Z,84.08
2019-02-28T08:59:27.392Z,84.39
2019-02-28T09:00:31.301Z,84.08
2019-02-28T09:01:28.370Z,83.73
2019-02-28T09:02:27.414Z,83.36
2019-02-28T09:03:28.092Z,84.14
2019-02-28T09:04:27.382Z,82.56
2019-02-28T09:05:29.909Z,81.74
2019-02-28T09:06:27.648Z,82.56
2019-02-28T09:07:27.314Z,82.67
2019-02-28T09:08:27.309Z,82.67
2019-02-28T09:09:27.334Z,82.63
2019-02-28T09:10:27.267Z,82.32
2019-02-28T09:11:27.266Z,80.63
2019-02-28T09:12:29.927Z,80.36
2019-02-28T09:13:28.271Z,80.33
2019-02-28T09:14:27.294Z,81.05
2019-02-28T09:15:31.147Z,81.76
2019-02-28T09:16:27.194Z,80.49
2019-02-28T09:17:27.229Z,79.47
2019-02-28T09:18:27.194Z,80.19
2019-02-28T09:19:27.219Z,79.47
2019-02-28T09:20:27.148Z,79.05
2019-02-28T09:21:27.149Z,79.43
2019-02-28T09:22:28.089Z,79.53
2019-02-28T09:23:27.228Z,78.03
2019-02-28T09:24:27.130Z,78.96
2019-02-28T09:25:27.329Z,78.81
2019-02-28T09:26:28.226Z,77.68
2019-02-28T09:27:27.088Z,77.75
2019-02-28T09:28:27.084Z,77.27
2019-02-28T09:29:27.070Z,77.17
2019-02-28T09:30:29.698Z,76.86
2019-02-28T09:31:27.054Z,76.65
2019-02-28T09:32:27.033Z,77.48
2019-02-28T09:33:27.030Z,77.17
2019-02-28T09:34:27.051Z,76.76
2019-02-28T09:35:26.989Z,76.86
2019-02-28T09:36:27.014Z,76.00
2019-02-28T09:37:29.484Z,76.82
2019-02-28T09:38:27.041Z,77.13
2019-02-28T09:39:26.953Z,77.03
2019-02-28T09:40:29.512Z,77.03
2019-02-28T09:41:26.937Z,75.38
2019-02-28T09:42:26.948Z,75.76
2019-02-28T09:43:26.908Z,76.28
2019-02-28T09:44:26.939Z,76.17
2019-02-28T09:45:26.912Z,74.32
2019-02-28T09:46:27.095Z,73.95
2019-02-28T09:47:27.512Z,75.18
2019-02-28T09:48:26.901Z,74.22
2019-02-28T09:49:26.866Z,75.18
2019-02-28T09:50:26.986Z,75.66
2019-02-28T09:51:31.704Z,74.74
2019-02-28T09:52:27.809Z,73.47
2019-02-28T09:53:26.815Z,73.68
2019-02-28T09:54:26.851Z,72.85
2019-02-28T09:55:26.817Z,72.65
2019-02-28T09:56:26.781Z,72.85
2019-02-28T09:57:26.876Z,72.61
2019-02-28T09:58:29.329Z,73.02
2019-02-28T09:59:26.753Z,72.00
2019-02-28T10:00:27.594Z,71.80
2019-02-28T10:01:26.716Z,72.07
2019-02-28T10:02:26.962Z,71.56
2019-02-28T10:03:26.707Z,71.45
2019-02-28T10:04:27.426Z,71.56
2019-02-28T10:05:26.673Z,71.86
2019-02-28T10:06:26.708Z,71.73
2019-02-28T10:07:27.182Z,71.04
2019-02-28T10:08:26.724Z,71.35
2019-02-28T10:09:26.636Z,71.32
2019-02-28T10:10:26.664Z,70.40
2019-02-28T10:11:31.377Z,71.11
2019-02-28T10:12:27.609Z,71.11
2019-02-28T10:13:26.611Z,70.70
2019-02-28T10:14:28.985Z,71.22
2019-02-28T10:15:26.561Z,71.01
2019-02-28T10:16:26.655Z,70.67
2019-02-28T10:17:28.897Z,71.32
2019-02-28T10:18:26.562Z,70.87
2019-02-28T10:19:26.580Z,71.08
2019-02-28T10:20:28.129Z,70.06
2019-02-28T10:21:26.509Z,69.54
2019-02-28T10:22:26.504Z,69.44
2019-02-28T10:23:26.528Z,69.03
2019-02-28T10:24:28.351Z,68.90
2019-02-28T10:25:26.462Z,68.79
2019-02-28T10:26:26.454Z,68.35
2019-02-28T10:27:26.974Z,68.76
2019-02-28T10:28:26.531Z,67.71
2019-02-28T10:29:26.451Z,67.84
2019-02-28T10:30:31.676Z,67.81
2019-02-28T10:31:36.200Z,67.16
2019-02-28T10:32:27.399Z,67.10
2019-02-28T10:33:26.389Z,67.50
2019-02-28T10:34:27.414Z,67.60
2019-02-28T10:35:26.352Z,67.07
2019-02-28T10:36:26.385Z,67.68
2019-02-28T10:37:26.354Z,67.16
2019-02-28T10:38:26.402Z,67.88
2019-02-28T10:39:26.314Z,67.34
2019-02-28T10:40:26.308Z,66.96
2019-02-28T10:41:27.955Z,67.44
2019-02-28T10:42:26.310Z,67.13
2019-02-28T10:43:26.301Z,67.24
2019-02-28T10:44:30.310Z,67.10
2019-02-28T10:45:26.325Z,67.00
2019-02-28T10:46:26.234Z,66.49
2019-02-28T10:47:29.600Z,66.90
2019-02-28T10:48:26.276Z,65.67
2019-02-28T10:49:26.432Z,66.72
2019-02-28T10:50:26.193Z,66.39
2019-02-28T10:51:26.188Z,66.83
2019-02-28T10:52:26.894Z,66.93
2019-02-28T10:53:26.222Z,67.37
2019-02-28T10:54:26.152Z,67.03
2019-02-28T10:55:26.155Z,67.07
2019-02-28T10:56:26.168Z,67.47
2019-02-28T10:57:26.126Z,66.99
2019-02-28T10:58:26.113Z,66.96
2019-02-28T10:59:26.143Z,66.75
2019-02-28T11:00:26.201Z,66.93
2019-02-28T11:01:26.109Z,67.07
2019-02-28T11:02:26.128Z,67.16
2019-02-28T11:03:31.810Z,67.16
2019-02-28T11:04:27.602Z,67.37
2019-02-28T11:05:27.532Z,66.25
2019-02-28T11:06:28.269Z,67.07
2019-02-28T11:07:26.034Z,67.13
2019-02-28T11:08:25.990Z,66.83
2019-02-28T11:09:26.022Z,67.03
2019-02-28T11:10:26.024Z,66.83
2019-02-28T11:11:26.074Z,66.39
2019-02-28T11:12:25.950Z,66.49
2019-02-28T11:13:28.496Z,66.39
2019-02-28T11:14:26.924Z,66.15
2019-02-28T11:15:25.920Z,66.28
2019-02-28T11:16:25.931Z,66.69
2019-02-28T11:17:25.948Z,66.49
2019-02-28T11:18:25.949Z,66.49
2019-02-28T11:19:25.966Z,66.80
2019-02-28T11:20:26.990Z,66.69
2019-02-28T11:21:25.881Z,66.90
2019-02-28T11:22:25.838Z,66.80
2019-02-28T11:23:25.891Z,67.00
2019-02-28T11:24:27.063Z,67.10
2019-02-28T11:25:25.858Z,66.69
2019-02-28T11:26:25.844Z,66.56
2019-02-28T11:27:25.791Z,66.59
2019-02-28T11:28:28.248Z,67.10
2019-02-28T11:29:25.790Z,66.80
2019-02-28T11:30:25.760Z,66.90
2019-02-28T11:31:25.877Z,67.30
2019-02-28T11:32:26.421Z,66.86
2019-02-28T11:33:25.720Z,67.41
2019-02-28T11:34:25.714Z,67.27
2019-02-28T11:35:25.781Z,66.80
2019-02-28T11:36:25.712Z,66.77
2019-02-28T11:37:25.865Z,67.18
2019-02-28T11:38:25.701Z,66.97
2019-02-28T11:39:27.545Z,66.97
2019-02-28T11:40:25.663Z,67.24
2019-02-28T11:41:25.716Z,67.04
2019-02-28T11:42:28.069Z,67.04
2019-02-28T11:43:26.791Z,67.24
2019-02-28T11:44:25.631Z,67.04
2019-02-28T11:45:25.682Z,66.91
2019-02-28T11:46:25.596Z,66.60
2019-02-28T11:47:25.656Z,66.70
2019-02-28T11:48:25.586Z,66.80
2019-02-28T11:49:28.378Z,66.80
2019-02-28T11:50:25.663Z,66.09
2019-02-28T11:51:25.581Z,66.70
2019-02-28T11:52:27.343Z,65.95
2019-02-28T11:53:25.550Z,65.99
2019-02-28T11:54:25.508Z,67.18
2019-02-28T11:55:27.103Z,65.37
2019-02-28T11:56:28.647Z,66.19
2019-02-28T11:57:25.476Z,66.80
2019-02-28T11:58:25.563Z,65.99
2019-02-28T11:59:25.583Z,65.95
2019-02-28T12:00:25.464Z,67.08
2019-02-28T12:01:25.465Z,66.54
2019-02-28T12:02:25.421Z,65.34
2019-02-28T12:03:25.460Z,65.14
2019-02-28T12:04:25.430Z,65.65
2019-02-28T12:05:25.408Z,65.04
2019-02-28T12:06:26.275Z,64.84
2019-02-28T12:07:25.387Z,65.14
2019-02-28T12:08:25.383Z,65.14
2019-02-28T12:09:25.334Z,65.34
2019-02-28T12:10:26.923Z,65.52
2019-02-28T12:11:25.319Z,65.22
2019-02-28T12:12:25.353Z,64.29
2019-02-28T12:13:25.396Z,64.43
2019-02-28T12:14:26.415Z,65.01
2019-02-28T12:15:25.355Z,64.50
2019-02-28T12:16:25.288Z,65.08
2019-02-28T12:17:25.543Z,64.29
2019-02-28T12:18:26.179Z,64.87
2019-02-28T12:19:25.327Z,64.87
2019-02-28T12:20:26.544Z,63.42
2019-02-28T12:21:25.217Z,63.56
2019-02-28T12:22:25.197Z,63.86
2019-02-28T12:23:25.244Z,64.57
2019-02-28T12:24:25.230Z,65.22
2019-02-28T12:25:25.283Z,65.62
2019-02-28T12:26:25.160Z,64.90
2019-02-28T12:27:27.427Z,64.84
2019-02-28T12:28:25.162Z,65.04
2019-02-28T12:29:25.196Z,65.04
2019-02-28T12:30:25.968Z,65.25
2019-02-28T12:31:25.149Z,66.03
2019-02-28T12:32:25.106Z,64.81
2019-02-28T12:33:25.119Z,65.72
2019-02-28T12:34:25.081Z,65.11
2019-02-28T12:35:25.279Z,65.08
2019-02-28T12:36:25.167Z,66.00
2019-02-28T12:37:25.074Z,65.08
2019-02-28T12:38:25.892Z,64.78
2019-02-28T12:39:25.033Z,65.28
2019-02-28T12:40:25.079Z,65.28
2019-02-28T12:41:26.043Z,64.26
2019-02-28T12:42:25.130Z,64.78
2019-02-28T12:43:25.021Z,65.19
2019-02-28T12:44:25.007Z,65.08
2019-02-28T12:45:25.186Z,65.69
2019-02-28T12:46:24.951Z,65.49
2019-02-28T12:47:25.054Z,65.05
2019-02-28T12:48:26.931Z,65.28
2019-02-28T12:49:27.061Z,64.84
2019-02-28T12:50:24.911Z,65.56
2019-02-28T12:51:24.881Z,65.25
2019-02-28T12:52:24.876Z,65.46